Airfield :
LOGIN :

Register | Disclaimer

   EN    FR    IT 

 










Legend :    VFR   Marginal VFR   IFR   Intensive IFR   Very Intensive IFR
Visi :
Ceiling :
>= 8 km
>= 3000ft
5 to 8 km
1000 to 3000 ft
1500m to 5 km
500 to 1000 ft
800 to 1500m
200 to 500 ft
< 800m
< 200 ft
Symbols :   Thunderstorms  Fog  Heavy snow  Heavy precipitations  Wind > 20 kt
SIGMETs :     Misc.  Thunderstorms  Icing  Turbulence  Mountain Waves  Volcanic Ashes







- Airport Elevation : 14 ft
- IATA code : BRE


EDDW - Bremen Neuenland

CURRENT METAR :
  • 240650Z 28010KT 9999 -RA FEW016 BKN031 13/10 Q1021 NOSIG

EXPIRED METARs :
  • 240620Z 29008KT 9999 -RA FEW015 BKN028 12/10 Q1021 NOSIG
  • 240550Z 29007KT 9999 FEW017 BKN030 12/10 Q1021 NOSIG
  • 240520Z 29007KT 9999 FEW017 BKN029 12/10 Q1021 NOSIG
  • 240450Z 28008KT 9999 FEW017 BKN036 BKN068 12/10 Q1021 NOSIG
  • 240420Z 28008KT 9999 -RA FEW018 BKN033 12/10 Q1021 NOSIG

TAF TAF EDDW
Valid from the 24 at 06:00 until the 25 at 06:00 UTC


240500Z 2406/2506 29009KT 9999 BKN025
PROB40
TEMPO 2406/2412 BKN012
BECMG 2422/2501 BKN012
TEMPO 2502/2506 4000 -RADZ BKN008
No reported NOTAMs for that airfield.



MET'MAP, your aeronautical weather chart ! - Copyright ORBIFLY December 2007 - Disclaimer

ORBIFLY MET'MAP TEAM :

Programming & Development : Alexandra Zaïnal
Concept & Development : Baudouin d'Aumeries
Co-Development & Prog : Marc-Olivier Méhu
Technical & hardware support : Manuel Goepfert

Contact : metmap@orbifly.com




SOURCES & CREDITS :

   NOAA